Airfield :







YOU CAN JOIN US ON...

 
LOGIN :

Register | Disclaimer

   EN    FR    IT 

 









Legend :    VFR   Marginal VFR   IFR   Intensive IFR   Very Intensive IFR
Visi :
Ceiling :
>= 8 km
>= 3000ft
5 to 8 km
1000 to 3000 ft
1500m to 5 km
500 to 1000 ft
800 to 1500m
200 to 500 ft
< 800m
< 200 ft
Symbols :   Thunderstorms  Fog  Heavy snow  Heavy precipitations  Wind > 20 kt






- Airport Elevation : 1009 ft
- IATA code : ORH


KORH - Worcester Regional

CURRENT METAR :
  • 090554Z AUTO 23009KT 10SM CLR 24/22 A2989 RMK AO2 SLP115 LAST AUGMENTED OBS 60002 T02440222 10267 20239 56012

EXPIRED METARs :
  • 090454Z 24012KT 10SM SCT070 24/22 A2991 RMK AO2 SLP120 T02440222 403330228
  • 090354Z 23009KT 10SM CLR 24/23 A2991 RMK AO2 RAB0259E34 SLP119 P0002 T02440228

TAF KORH
Valid from the 09 at 06:00 until the 10 at 06:00 UTC


090540Z 0906/1006 24012KT P6SM SCT070
FM091800 28010G20KT P6SM -SHRA BKN060
FM100000 31005KT P6SM BKN070
FM100200 36006KT P6SM BKN025
FM100300 01005KT P6SM BKN015
FM100500 03006KT P6SM BKN008
KZBW FIR / North America



MET'MAP, your aeronautical weather chart ! - Copyright ORBIFLY December 2007 - Disclaimer

ORBIFLY MET'MAP TEAM :

Programming & Development : Alexandra Zaïnal
Original concept : Baudouin d'Aumeries
Technical & hardware support : Manuel Goepfert
Assistance : Marc-Olivier Méhu




SOURCES & CREDITS :

   NOAA